• Join FlightAware (Why Join?)
  • Login
  • US Flag 
03:45PM EDT


 

Airport Tracker/Info


-or-


 

Live Flight TrackerFlight Track Log ✈ FIN666 ✈ 11-Oct-2013 ✈ EKCH / CPH - EFHK / HEL

Flight Track Log - Related Links

Times and Time Zones

All times are in EDT time to prevent confusion due to time zone crossing. See the FIN666 flight status page for this flight to view local times or setup timezone preferences in your user account.

Time Position Orientation Groundspeed Altitude Reporting Facility
EDT Latitude Longitude Course Direction KTS MPH feet Rate Location/Type
07:32AM 55.8217 13.0768 49° Northeast  Level Estimated
07:33AM 55.8894 13.2181 49° Northeast  Level Estimated
07:34AM 55.9595 13.3656 50° Northeast  Level Estimated
07:35AM 56.0296 13.5137 50° Northeast  Level Estimated
07:36AM 56.0994 13.6623 50° Northeast  Level Estimated
07:37AM 56.1690 13.8114 50° Northeast  Level Estimated
07:38AM 56.2385 13.9611 50° Northeast  Level Estimated
07:39AM 56.3078 14.1113 50° Northeast  Level Estimated
07:40AM 56.3769 14.2620 50° Northeast  Level Estimated
07:41AM 56.4458 14.4133 50° Northeast  Level Estimated
07:42AM 56.5146 14.5652 51° Northeast  Level Estimated
07:43AM 56.5831 14.7176 51° Northeast  Level Estimated
07:44AM 56.6515 14.8705 51° Northeast  Level Estimated
07:45AM 56.7197 15.0240 51° Northeast  Level Estimated
07:46AM 56.7877 15.1781 51° Northeast  Level Estimated
07:47AM 56.8555 15.3328 51° Northeast  Level Estimated
07:48AM 56.9231 15.4879 51° Northeast  Level Estimated
07:49AM 56.9905 15.6437 51° Northeast  Level Estimated
07:50AM 57.0577 15.8000 52° Northeast  Level Estimated
07:51AM 57.1248 15.9569 52° Northeast  Level Estimated
07:52AM 57.1916 16.1143 52° Northeast  Level Estimated
07:53AM 57.2582 16.2724 52° Northeast  Level Estimated
07:54AM 57.3246 16.4310 52° Northeast  Level Estimated
07:55AM 57.3909 16.5901 52° Northeast  Level Estimated
07:56AM 57.4569 16.7499 52° Northeast  Level Estimated
07:57AM 57.5227 16.9102 53° Northeast  Level Estimated
07:58AM 57.5875 17.0689 53° Northeast  Level Estimated
07:59AM 57.6520 17.2282 53° Northeast  Level Estimated
08:00AM 57.7164 17.3881 53° Northeast  Level Estimated
08:01AM 57.7805 17.5486 53° Northeast  Level Estimated
08:02AM 57.8445 17.7096 53° Northeast  Level Estimated
08:03AM 57.9082 17.8712 53° Northeast  Level Estimated
08:04AM 57.9718 18.0333 53° Northeast  Level Estimated
08:05AM 58.0351 18.1961 54° Northeast  Level Estimated
08:06AM 58.0982 18.3594 54° Northeast  Level Estimated
08:07AM 58.1611 18.5233 54° Northeast  Level Estimated
08:08AM 58.2238 18.6878 54° Northeast  Level Estimated
08:09AM 58.2863 18.8528 54° Northeast  Level Estimated
08:10AM 58.3486 19.0184 54° Northeast  Level Estimated
08:11AM 58.4106 19.1847 54° Northeast  Level Estimated
08:12AM 58.4725 19.3515 55° Northeast  Level Estimated
08:13AM 58.5341 19.5189 55° Northeast  Level Estimated
08:14AM 58.5955 19.6868 55° Northeast  Level Estimated
08:15AM 58.6567 19.8554 55° Northeast  Level Estimated
08:16AM 58.7177 20.0246 55° Northeast  Level Estimated
08:17AM 58.7784 20.1943 55° Northeast  Level Estimated
08:18AM 58.8390 20.3647 55° Northeast  Level Estimated
08:19AM 58.8993 20.5356 56° Northeast  Level Estimated
08:20AM 58.9593 20.7072 56° Northeast  Level Estimated
08:21AM 59.0192 20.8793 56° Northeast  Level Estimated
08:22AM 59.0788 21.0520 56° Northeast  Level Estimated
08:23AM 59.1382 21.2254 56° Northeast  Level Estimated
08:24AM 59.1973 21.3993 56° Northeast  Level Estimated
08:25AM 59.2562 21.5739 57° Northeast  Level Estimated
08:26AM 59.3149 21.7490 57° Northeast  Level Estimated
08:27AM 59.3734 21.9248 57° Northeast  Level Estimated
08:28AM 59.4316 22.1011 57° Northeast  Level Estimated
08:29AM 59.4895 22.2781 57° Northeast  Level Estimated
08:30AM 59.5473 22.4556 57° Northeast  Level Estimated
08:31AM 59.6048 22.6338 57° Northeast  Level Estimated
08:32AM 59.6620 22.8126 58° Northeast  Level Estimated
08:33AM 59.7190 22.9920 58° Northeast  Level Estimated
08:34AM 59.7758 23.1720 58° Northeast  Level Estimated
08:35AM 59.8323 23.3526 58° Northeast  Level Estimated
08:36AM 59.8885 23.5338 58° Northeast  Level Estimated
08:37AM 59.9446 23.7157 58° Northeast  Level Estimated
08:38AM 60.0003 23.8981 59° Northeast  Level Estimated
08:39AM 60.0558 24.0812 59° Northeast  Level Estimated
08:40AM 60.1111 24.2649 59° Northeast  Level Estimated
08:41AM 60.1661 24.4492 59° Northeast  Level Estimated
08:42AM 60.2209 24.6341 59° Northeast  Level Estimated
08:43AM 60.2753 24.8197 59° Northeast  Level Estimated
08:44AM 60.3172 24.9633 59° Northeast  Level Estimated
08:45AM 60.3172 24.9633 37° Northeast  Level Estimated
08:46AM 60.3172 24.9633 37° Northeast  Level Estimated
08:47AM 60.3172 24.9633 37° Northeast  Level Estimated
08:48AM 60.3172 24.9633 37° Northeast  Level Estimated
08:49AM 60.3172 24.9633 37° Northeast  Level Estimated
08:50AM 60.3172 24.9633 37° Northeast  Level Estimated
08:51AM 60.3172 24.9633 37° Northeast  Level Estimated
08:52AM 60.3172 24.9633 37° Northeast  Level Estimated
08:53AM 60.3172 24.9633 37° Northeast  Level Estimated
08:54AM 60.3172 24.9633 37° Northeast  Level Estimated
08:55AM 60.3172 24.9633 37° Northeast  Level Estimated
08:56AM 60.3172 24.9633 37° Northeast  Level Estimated